Terminal Aerodrome Forecast
Issued by NWS

Home | Current Version | Previous Version | Text Only | Print | Product List | Glossary On
Versions: 1 2 3 4 5 6 7 8 9 10 11 12 13 14 15
000
FTUS43 KSGF 182300
TAFJLN
TAF
KJLN 182336Z 1900/1924 22011KT P6SM SKC
     FM190100 18006KT P6SM SKC
     FM190700 18008KT P6SM FEW080 SCT250 WS010/26035KT
     FM191000 21009KT P6SM SCT080 BKN250 PROB30 1910/1916 -TSRA
      SCT020 OVC040CB
     FM191700 21014G22KT P6SM SCT050=

USA.gov is the U.S. government's official web portal to all federal, state and local government web resources and services.